Terminal Aerodrome Forecast
Issued by NWS Bismarck, ND

Home | Current Version | Previous Version | Text Only | Print | Product List | Glossary Off
Versions: 1 2 3 4 5 6 7 8 9 10 11 12 13 14 15 16 17

890
FTUS43 KBIS 121739
TAFBIS
TAF
KBIS 121739Z 1218/1318 03006KT P6SM SCT150
     FM130600 13008KT P6SM BKN090
     FM131100 14011KT P6SM OVC030
     FM131300 14013KT P6SM -SHSN OVC015=

USA.gov is the U.S. government's official web portal to all federal, state and local government web resources and services.